sensor_id;sensor_type;location;lat;lon;timestamp;pressure;altitude;pressure_sealevel;temperature;humidity
11440;BME280;5776;51.814;4.510;2023-05-21T00:00:09;102011.59;;;15.36;90.47
11440;BME280;5776;51.814;4.510;2023-05-21T00:02:37;102007.75;;;15.37;91.19
11440;BME280;5776;51.814;4.510;2023-05-21T00:05:04;102009.97;;;15.34;90.61
11440;BME280;5776;51.814;4.510;2023-05-21T00:07:30;102010.28;;;15.33;90.52
11440;BME280;5776;51.814;4.510;2023-05-21T00:09:58;102011.06;;;15.33;90.42
11440;BME280;5776;51.814;4.510;2023-05-21T00:12:24;102002.06;;;15.33;91.18
11440;BME280;5776;51.814;4.510;2023-05-21T00:14:50;102003.72;;;15.29;90.96
11440;BME280;5776;51.814;4.510;2023-05-21T00:17:16;101995.84;;;15.27;91.66
11440;BME280;5776;51.814;4.510;2023-05-21T00:19:42;101992.56;;;15.25;91.46
11440;BME280;5776;51.814;4.510;2023-05-21T00:22:09;101997.72;;;15.27;91.85
11440;BME280;5776;51.814;4.510;2023-05-21T00:24:35;101996.94;;;15.26;91.62
11440;BME280;5776;51.814;4.510;2023-05-21T00:27:01;101995.06;;;15.22;91.57
11440;BME280;5776;51.814;4.510;2023-05-21T00:29:26;101990.69;;;15.21;91.38
11440;BME280;5776;51.814;4.510;2023-05-21T00:31:54;101995.38;;;15.20;91.35
11440;BME280;5776;51.814;4.510;2023-05-21T00:34:21;101994.53;;;15.20;92.00
11440;BME280;5776;51.814;4.510;2023-05-21T00:36:47;101994.84;;;15.18;91.93
11440;BME280;5776;51.814;4.510;2023-05-21T00:39:13;101999.50;;;15.18;92.84
11440;BME280;5776;51.814;4.510;2023-05-21T00:41:39;102001.94;;;15.19;92.22
11440;BME280;5776;51.814;4.510;2023-05-21T00:44:11;101999.78;;;15.16;92.66
11440;BME280;5776;51.814;4.510;2023-05-21T00:46:39;101997.31;;;15.15;92.00
11440;BME280;5776;51.814;4.510;2023-05-21T00:49:06;101992.09;;;15.18;92.03
11440;BME280;5776;51.814;4.510;2023-05-21T00:51:32;101986.31;;;15.20;91.69
11440;BME280;5776;51.814;4.510;2023-05-21T00:53:58;101981.97;;;15.19;92.33
11440;BME280;5776;51.814;4.510;2023-05-21T00:56:24;101983.88;;;15.18;92.74
11440;BME280;5776;51.814;4.510;2023-05-21T00:58:53;101987.22;;;15.15;92.76
11440;BME280;5776;51.814;4.510;2023-05-21T01:01:19;101990.50;;;15.12;93.39
11440;BME280;5776;51.814;4.510;2023-05-21T01:03:45;101987.78;;;15.12;93.01
11440;BME280;5776;51.814;4.510;2023-05-21T01:06:13;101985.03;;;15.12;93.23
11440;BME280;5776;51.814;4.510;2023-05-21T01:08:39;101983.69;;;15.09;93.21
11440;BME280;5776;51.814;4.510;2023-05-21T01:11:07;101976.59;;;15.08;93.23
11440;BME280;5776;51.814;4.510;2023-05-21T01:13:37;101982.88;;;15.09;93.97
11440;BME280;5776;51.814;4.510;2023-05-21T01:16:05;101979.88;;;15.10;92.97
11440;BME280;5776;51.814;4.510;2023-05-21T01:18:34;101977.41;;;15.09;93.45
11440;BME280;5776;51.814;4.510;2023-05-21T01:21:03;101980.16;;;15.09;93.61
11440;BME280;5776;51.814;4.510;2023-05-21T01:23:29;101972.81;;;15.04;94.01
11440;BME280;5776;51.814;4.510;2023-05-21T01:25:55;101969.56;;;15.02;93.65
11440;BME280;5776;51.814;4.510;2023-05-21T01:28:21;101969.00;;;15.05;93.62
11440;BME280;5776;51.814;4.510;2023-05-21T01:30:47;101969.00;;;15.05;93.70
11440;BME280;5776;51.814;4.510;2023-05-21T01:33:32;101973.66;;;15.05;94.21
11440;BME280;5776;51.814;4.510;2023-05-21T01:36:14;101973.34;;;15.06;94.20
11440;BME280;5776;51.814;4.510;2023-05-21T01:39:05;101970.91;;;15.05;93.94
11440;BME280;5776;51.814;4.510;2023-05-21T01:41:36;101967.88;;;15.06;94.21
11440;BME280;5776;51.814;4.510;2023-05-21T01:44:04;101975.56;;;15.04;93.63
11440;BME280;5776;51.814;4.510;2023-05-21T01:46:34;101970.06;;;15.04;94.22
11440;BME280;5776;51.814;4.510;2023-05-21T01:49:02;101973.94;;;15.03;94.28
11440;BME280;5776;51.814;4.510;2023-05-21T01:51:29;101975.84;;;15.03;94.54
11440;BME280;5776;51.814;4.510;2023-05-21T01:53:55;101975.56;;;15.04;94.34
11440;BME280;5776;51.814;4.510;2023-05-21T01:56:21;101976.06;;;15.06;94.37
11440;BME280;5776;51.814;4.510;2023-05-21T01:58:51;101970.91;;;15.05;95.35
11440;BME280;5776;51.814;4.510;2023-05-21T02:01:17;101972.81;;;15.04;95.86
11440;BME280;5776;51.814;4.510;2023-05-21T02:03:43;101974.47;;;15.05;95.48
11440;BME280;5776;51.814;4.510;2023-05-21T02:06:08;101968.19;;;15.05;94.91
11440;BME280;5776;51.814;4.510;2023-05-21T02:08:35;101968.69;;;15.07;96.01
11440;BME280;5776;51.814;4.510;2023-05-21T02:11:01;101963.78;;;15.04;96.31
11440;BME280;5776;51.814;4.510;2023-05-21T02:13:26;101958.84;;;15.06;95.54
11440;BME280;5776;51.814;4.510;2023-05-21T02:15:54;101960.78;;;15.05;95.90
11440;BME280;5776;51.814;4.510;2023-05-21T02:18:20;101958.31;;;15.04;96.37
11440;BME280;5776;51.814;4.510;2023-05-21T02:20:47;101958.31;;;15.04;95.81
11440;BME280;5776;51.814;4.510;2023-05-21T02:23:13;101957.25;;;15.05;96.21
11440;BME280;5776;51.814;4.510;2023-05-21T02:25:38;101953.66;;;15.04;96.82
11440;BME280;5776;51.814;4.510;2023-05-21T02:28:04;101952.84;;;15.04;96.93
11440;BME280;5776;51.814;4.510;2023-05-21T02:30:31;101960.47;;;15.07;96.30
11440;BME280;5776;51.814;4.510;2023-05-21T02:32:57;101959.38;;;15.08;95.99
11440;BME280;5776;51.814;4.510;2023-05-21T02:35:23;101958.00;;;15.10;95.46
11440;BME280;5776;51.814;4.510;2023-05-21T02:37:49;101960.41;;;15.12;95.29
11440;BME280;5776;51.814;4.510;2023-05-21T02:40:15;101957.19;;;15.10;96.27
11440;BME280;5776;51.814;4.510;2023-05-21T02:42:41;101955.00;;;15.07;95.73
11440;BME280;5776;51.814;4.510;2023-05-21T02:45:08;101955.53;;;15.09;96.67
11440;BME280;5776;51.814;4.510;2023-05-21T02:47:34;101956.34;;;15.09;95.81
11440;BME280;5776;51.814;4.510;2023-05-21T02:50:00;101956.34;;;15.09;95.74
11440;BME280;5776;51.814;4.510;2023-05-21T02:52:27;101956.66;;;15.08;96.21
11440;BME280;5776;51.814;4.510;2023-05-21T02:54:53;101949.53;;;15.07;95.71
11440;BME280;5776;51.814;4.510;2023-05-21T02:57:19;101953.09;;;15.07;96.17
11440;BME280;5776;51.814;4.510;2023-05-21T02:59:45;101956.66;;;15.08;95.79
11440;BME280;5776;51.814;4.510;2023-05-21T03:02:11;101959.38;;;15.08;96.45
11440;BME280;5776;51.814;4.510;2023-05-21T03:04:37;101956.94;;;15.06;96.42
11440;BME280;5776;51.814;4.510;2023-05-21T03:07:14;101951.47;;;15.06;96.39
11440;BME280;5776;51.814;4.510;2023-05-21T03:09:42;101954.19;;;15.06;97.11
11440;BME280;5776;51.814;4.510;2023-05-21T03:12:09;101956.13;;;15.06;96.22
11440;BME280;5776;51.814;4.510;2023-05-21T03:14:35;101953.91;;;15.08;97.11
11440;BME280;5776;51.814;4.510;2023-05-21T03:17:01;101949.84;;;15.05;96.19
11440;BME280;5776;51.814;4.510;2023-05-21T03:19:31;101941.09;;;15.03;97.87
11440;BME280;5776;51.814;4.510;2023-05-21T03:21:59;101948.50;;;15.03;97.58
11440;BME280;5776;51.814;4.510;2023-05-21T03:24:27;101946.84;;;15.02;97.35
11440;BME280;5776;51.814;4.510;2023-05-21T03:26:53;101948.19;;;15.04;97.98
11440;BME280;5776;51.814;4.510;2023-05-21T03:29:19;101951.50;;;15.01;98.48
11440;BME280;5776;51.814;4.510;2023-05-21T03:31:45;101947.44;;;14.99;98.49
11440;BME280;5776;51.814;4.510;2023-05-21T03:34:11;101938.66;;;15.02;98.54
11440;BME280;5776;51.814;4.510;2023-05-21T03:36:37;101943.56;;;15.05;98.06
11440;BME280;5776;51.814;4.510;2023-05-21T03:39:03;101947.38;;;15.04;97.83
11440;BME280;5776;51.814;4.510;2023-05-21T03:41:29;101943.03;;;15.03;97.97
11440;BME280;5776;51.814;4.510;2023-05-21T03:43:55;101950.44;;;15.02;98.57
11440;BME280;5776;51.814;4.510;2023-05-21T03:46:21;101951.22;;;15.03;98.18
11440;BME280;5776;51.814;4.510;2023-05-21T03:48:47;101948.78;;;15.01;98.20
11440;BME280;5776;51.814;4.510;2023-05-21T03:51:13;101944.66;;;15.04;98.59
11440;BME280;5776;51.814;4.510;2023-05-21T03:53:40;101954.25;;;15.01;98.25
11440;BME280;5776;51.814;4.510;2023-05-21T03:56:06;101951.81;;;15.00;97.90
11440;BME280;5776;51.814;4.510;2023-05-21T03:58:32;101948.78;;;15.01;98.28
11440;BME280;5776;51.814;4.510;2023-05-21T04:00:58;101937.84;;;15.01;98.49
11440;BME280;5776;51.814;4.510;2023-05-21T04:03:26;101941.38;;;15.02;97.90
11440;BME280;5776;51.814;4.510;2023-05-21T04:05:51;101937.03;;;15.01;97.84
11440;BME280;5776;51.814;4.510;2023-05-21T04:08:18;101935.91;;;15.02;98.36
11440;BME280;5776;51.814;4.510;2023-05-21T04:10:44;101941.69;;;15.00;98.85
11440;BME280;5776;51.814;4.510;2023-05-21T04:13:10;101940.88;;;15.00;99.58
11440;BME280;5776;51.814;4.510;2023-05-21T04:15:36;101939.75;;;15.01;98.80
11440;BME280;5776;51.814;4.510;2023-05-21T04:18:03;101942.50;;;15.01;98.34
11440;BME280;5776;51.814;4.510;2023-05-21T04:20:29;101941.38;;;15.02;99.79
11440;BME280;5776;51.814;4.510;2023-05-21T04:22:55;101937.03;;;15.01;98.12
11440;BME280;5776;51.814;4.510;2023-05-21T04:25:21;101939.22;;;14.99;98.58
11440;BME280;5776;51.814;4.510;2023-05-21T04:27:48;101940.34;;;14.98;99.78
11440;BME280;5776;51.814;4.510;2023-05-21T04:30:14;101938.72;;;14.97;99.48
11440;BME280;5776;51.814;4.510;2023-05-21T04:32:40;101941.44;;;14.97;99.45
11440;BME280;5776;51.814;4.510;2023-05-21T04:35:10;101947.72;;;14.97;99.40
11440;BME280;5776;51.814;4.510;2023-05-21T04:37:37;101945.50;;;14.99;98.51
11440;BME280;5776;51.814;4.510;2023-05-21T04:40:07;101944.97;;;14.97;98.77
11440;BME280;5776;51.814;4.510;2023-05-21T04:42:33;101938.72;;;14.97;99.74
11440;BME280;5776;51.814;4.510;2023-05-21T04:44:59;101942.78;;;14.99;99.04
11440;BME280;5776;51.814;4.510;2023-05-21T04:47:25;101937.31;;;14.99;99.21
11440;BME280;5776;51.814;4.510;2023-05-21T04:49:55;101937.63;;;14.98;99.48
11440;BME280;5776;51.814;4.510;2023-05-21T04:52:21;101937.38;;;14.94;99.68
11440;BME280;5776;51.814;4.510;2023-05-21T04:54:49;101946.69;;;14.93;99.00
11440;BME280;5776;51.814;4.510;2023-05-21T04:57:15;101940.91;;;14.95;99.31
11440;BME280;5776;51.814;4.510;2023-05-21T04:59:42;101944.75;;;14.94;99.82
11440;BME280;5776;51.814;4.510;2023-05-21T05:02:08;101946.69;;;14.93;99.39
11440;BME280;5776;51.814;4.510;2023-05-21T05:04:34;101946.69;;;14.93;99.47
11440;BME280;5776;51.814;4.510;2023-05-21T05:07:00;101945.34;;;14.90;100.00
11440;BME280;5776;51.814;4.510;2023-05-21T05:09:26;101947.28;;;14.90;100.00
11440;BME280;5776;51.814;4.510;2023-05-21T05:11:52;101949.44;;;14.93;100.00
11440;BME280;5776;51.814;4.510;2023-05-21T05:14:18;101947.50;;;14.94;99.64
11440;BME280;5776;51.814;4.510;2023-05-21T05:16:44;101943.66;;;14.95;98.74
11440;BME280;5776;51.814;4.510;2023-05-21T05:19:12;101944.50;;;14.95;98.57
11440;BME280;5776;51.814;4.510;2023-05-21T05:21:38;101933.53;;;14.95;100.00
11440;BME280;5776;51.814;4.510;2023-05-21T05:24:04;101936.75;;;15.02;98.60
11440;BME280;5776;51.814;4.510;2023-05-21T05:26:30;101933.06;;;15.12;97.09
11440;BME280;5776;51.814;4.510;2023-05-21T05:28:56;101930.56;;;15.16;97.33
11440;BME280;5776;51.814;4.510;2023-05-21T05:31:22;101927.81;;;15.16;96.51
11440;BME280;5776;51.814;4.510;2023-05-21T05:33:48;101916.88;;;15.16;97.19
11440;BME280;5776;51.814;4.510;2023-05-21T05:36:14;101916.06;;;15.15;97.21
11440;BME280;5776;51.814;4.510;2023-05-21T05:38:41;101921.53;;;15.15;96.11
11440;BME280;5776;51.814;4.510;2023-05-21T05:41:06;101919.63;;;15.16;96.65
11440;BME280;5776;51.814;4.510;2023-05-21T05:43:32;101916.06;;;15.15;96.69
11440;BME280;5776;51.814;4.510;2023-05-21T05:45:58;101915.75;;;15.17;95.95
11440;BME280;5776;51.814;4.510;2023-05-21T05:48:24;101911.41;;;15.16;96.84
11440;BME280;5776;51.814;4.510;2023-05-21T05:50:50;101919.31;;;15.17;95.98
11440;BME280;5776;51.814;4.510;2023-05-21T05:53:19;101918.28;;;15.13;95.85
11440;BME280;5776;51.814;4.510;2023-05-21T05:55:45;101916.41;;;15.08;97.47
11440;BME280;5776;51.814;4.510;2023-05-21T05:58:11;101919.44;;;15.07;100.00
11440;BME280;5776;51.814;4.510;2023-05-21T06:00:37;101915.38;;;15.04;100.00
11440;BME280;5776;51.814;4.510;2023-05-21T06:03:03;101925.22;;;15.05;100.00
11440;BME280;5776;51.814;4.510;2023-05-21T06:05:29;101930.69;;;15.05;100.00
11440;BME280;5776;51.814;4.510;2023-05-21T06:07:55;101926.31;;;15.04;100.00
11440;BME280;5776;51.814;4.510;2023-05-21T06:10:21;101927.66;;;15.07;100.00
11440;BME280;5776;51.814;4.510;2023-05-21T06:12:47;101927.66;;;15.07;100.00
11440;BME280;5776;51.814;4.510;2023-05-21T06:15:13;101923.81;;;15.08;100.00
11440;BME280;5776;51.814;4.510;2023-05-21T06:17:41;101925.44;;;15.09;100.00
11440;BME280;5776;51.814;4.510;2023-05-21T06:20:10;101927.88;;;15.10;100.00
11440;BME280;5776;51.814;4.510;2023-05-21T06:22:37;101925.38;;;15.14;100.00
11440;BME280;5776;51.814;4.510;2023-05-21T06:25:03;101926.44;;;15.18;99.76
11440;BME280;5776;51.814;4.510;2023-05-21T06:27:29;101929.09;;;15.23;99.47
11440;BME280;5776;51.814;4.510;2023-05-21T06:29:55;101922.22;;;15.26;100.00
11440;BME280;5776;51.814;4.510;2023-05-21T06:32:23;101928.50;;;15.26;98.35
11440;BME280;5776;51.814;4.510;2023-05-21T06:34:49;101929.03;;;15.28;98.47
11440;BME280;5776;51.814;4.510;2023-05-21T06:37:19;101923.28;;;15.30;98.91
11440;BME280;5776;51.814;4.510;2023-05-21T06:39:46;101926.81;;;15.30;97.66
11440;BME280;5776;51.814;4.510;2023-05-21T06:42:12;101921.03;;;15.32;98.31
11440;BME280;5776;51.814;4.510;2023-05-21T06:44:38;101925.09;;;15.34;99.24
11440;BME280;5776;51.814;4.510;2023-05-21T06:47:04;101933.03;;;15.36;100.00
11440;BME280;5776;51.814;4.510;2023-05-21T06:49:31;101935.78;;;15.36;100.00
11440;BME280;5776;51.814;4.510;2023-05-21T06:51:57;101931.09;;;15.37;100.00
11440;BME280;5776;51.814;4.510;2023-05-21T06:54:23;101933.03;;;15.36;100.00
11440;BME280;5776;51.814;4.510;2023-05-21T06:56:49;101926.75;;;15.36;100.00
11440;BME280;5776;51.814;4.510;2023-05-21T06:59:15;101927.84;;;15.34;100.00
11440;BME280;5776;51.814;4.510;2023-05-21T07:01:41;101933.03;;;15.36;100.00
11440;BME280;5776;51.814;4.510;2023-05-21T07:04:07;101928.09;;;15.38;100.00
11440;BME280;5776;51.814;4.510;2023-05-21T07:06:34;101942.00;;;15.42;100.00
11440;BME280;5776;51.814;4.510;2023-05-21T07:09:00;101938.16;;;15.43;100.00
11440;BME280;5776;51.814;4.510;2023-05-21T07:11:26;101943.03;;;15.46;100.00
11440;BME280;5776;51.814;4.510;2023-05-21T07:16:21;101936.44;;;15.47;99.80
11440;BME280;5776;51.814;4.510;2023-05-21T07:18:47;101934.50;;;15.47;100.00
11440;BME280;5776;51.814;4.510;2023-05-21T07:21:13;101946.84;;;15.50;100.00
11440;BME280;5776;51.814;4.510;2023-05-21T07:23:39;101939.44;;;15.50;99.25
11440;BME280;5776;51.814;4.510;2023-05-21T07:26:05;101937.22;;;15.52;99.86
11440;BME280;5776;51.814;4.510;2023-05-21T07:28:31;101944.31;;;15.53;100.00
11440;BME280;5776;51.814;4.510;2023-05-21T07:30:57;101943.19;;;15.54;99.86
11440;BME280;5776;51.814;4.510;2023-05-21T07:33:22;101938.56;;;15.55;99.68
11440;BME280;5776;51.814;4.510;2023-05-21T07:35:48;101937.44;;;15.56;100.00
11440;BME280;5776;51.814;4.510;2023-05-21T07:38:13;101938.22;;;15.56;99.79
11440;BME280;5776;51.814;4.510;2023-05-21T07:40:39;101943.44;;;15.58;100.00
11440;BME280;5776;51.814;4.510;2023-05-21T07:43:05;101936.53;;;15.61;99.87
11440;BME280;5776;51.814;4.510;2023-05-21T07:45:31;101920.94;;;15.61;100.00
11440;BME280;5776;51.814;4.510;2023-05-21T07:47:57;101926.94;;;15.63;100.00
11440;BME280;5776;51.814;4.510;2023-05-21T07:50:24;101924.72;;;15.65;100.00
11440;BME280;5776;51.814;4.510;2023-05-21T07:52:50;101913.97;;;15.69;100.00
11440;BME280;5776;51.814;4.510;2023-05-21T07:55:15;101918.06;;;15.71;100.00
11440;BME280;5776;51.814;4.510;2023-05-21T07:57:42;101924.88;;;15.74;100.00
11440;BME280;5776;51.814;4.510;2023-05-21T08:00:10;101921.84;;;15.75;100.00
11440;BME280;5776;51.814;4.510;2023-05-21T08:02:39;101919.13;;;15.75;100.00
11440;BME280;5776;51.814;4.510;2023-05-21T08:05:05;101925.91;;;15.78;100.00
11440;BME280;5776;51.814;4.510;2023-05-21T08:07:31;101922.88;;;15.80;100.00
11440;BME280;5776;51.814;4.510;2023-05-21T08:09:57;101918.72;;;15.82;100.00
11440;BME280;5776;51.814;4.510;2023-05-21T08:12:23;101921.69;;;15.86;100.00
11440;BME280;5776;51.814;4.510;2023-05-21T08:14:49;101926.88;;;15.87;99.99
11440;BME280;5776;51.814;4.510;2023-05-21T08:17:15;101921.91;;;15.89;100.00
11440;BME280;5776;51.814;4.510;2023-05-21T08:19:41;101922.44;;;15.91;100.00
11440;BME280;5776;51.814;4.510;2023-05-21T08:22:07;101914.72;;;15.93;100.00
11440;BME280;5776;51.814;4.510;2023-05-21T08:24:33;101920.72;;;15.95;100.00
11440;BME280;5776;51.814;4.510;2023-05-21T08:26:59;101916.06;;;15.96;100.00
11440;BME280;5776;51.814;4.510;2023-05-21T08:29:25;101921.81;;;15.94;100.00
11440;BME280;5776;51.814;4.510;2023-05-21T08:31:51;101908.94;;;15.95;100.00
11440;BME280;5776;51.814;4.510;2023-05-21T08:34:17;101909.44;;;15.97;100.00
11440;BME280;5776;51.814;4.510;2023-05-21T08:36:43;101903.88;;;16.02;100.00
11440;BME280;5776;51.814;4.510;2023-05-21T08:39:11;101910.69;;;16.05;100.00
11440;BME280;5776;51.814;4.510;2023-05-21T08:41:40;101903.31;;;16.05;100.00
11440;BME280;5776;51.814;4.510;2023-05-21T08:44:10;101898.13;;;16.04;100.00
11440;BME280;5776;51.814;4.510;2023-05-21T08:46:39;101905.22;;;16.05;100.00
11440;BME280;5776;51.814;4.510;2023-05-21T08:49:11;101908.91;;;16.14;100.00
11440;BME280;5776;51.814;4.510;2023-05-21T08:51:37;101903.63;;;16.17;100.00
11440;BME280;5776;51.814;4.510;2023-05-21T08:54:04;101905.47;;;16.22;100.00
11440;BME280;5776;51.814;4.510;2023-05-21T08:56:31;101911.19;;;16.26;100.00
11440;BME280;5776;51.814;4.510;2023-05-21T08:58:58;101903.97;;;16.30;100.00
11440;BME280;5776;51.814;4.510;2023-05-21T09:01:24;101906.13;;;16.33;100.00
11440;BME280;5776;51.814;4.510;2023-05-21T09:03:51;101898.31;;;16.40;100.00
11440;BME280;5776;51.814;4.510;2023-05-21T09:06:20;101907.56;;;16.44;100.00
11440;BME280;5776;51.814;4.510;2023-05-21T09:08:51;101907.78;;;16.48;100.00
11440;BME280;5776;51.814;4.510;2023-05-21T09:11:19;101892.88;;;16.54;100.00
11440;BME280;5776;51.814;4.510;2023-05-21T09:13:46;101901.28;;;16.57;100.00
11440;BME280;5776;51.814;4.510;2023-05-21T09:16:13;101889.50;;;16.57;100.00
11440;BME280;5776;51.814;4.510;2023-05-21T09:18:38;101897.13;;;16.60;100.00
11440;BME280;5776;51.814;4.510;2023-05-21T09:21:23;101892.16;;;16.62;100.00
11440;BME280;5776;51.814;4.510;2023-05-21T09:23:58;101895.13;;;16.66;100.00
11440;BME280;5776;51.814;4.510;2023-05-21T09:26:25;101892.38;;;16.66;100.00
11440;BME280;5776;51.814;4.510;2023-05-21T09:28:55;101894.00;;;16.67;100.00
11440;BME280;5776;51.814;4.510;2023-05-21T09:31:22;101896.63;;;16.72;100.00
11440;BME280;5776;51.814;4.510;2023-05-21T09:33:49;101892.19;;;16.76;100.00
11440;BME280;5776;51.814;4.510;2023-05-21T09:36:19;101884.50;;;16.78;100.00
11440;BME280;5776;51.814;4.510;2023-05-21T09:38:45;101890.16;;;16.81;100.00
11440;BME280;5776;51.814;4.510;2023-05-21T09:41:11;101889.38;;;16.81;99.90
11440;BME280;5776;51.814;4.510;2023-05-21T09:43:37;101887.94;;;16.83;100.00
11440;BME280;5776;51.814;4.510;2023-05-21T09:46:03;101889.25;;;16.86;99.43
11440;BME280;5776;51.814;4.510;2023-05-21T09:48:39;101883.44;;;16.88;99.56
11440;BME280;5776;51.814;4.510;2023-05-21T09:51:14;101885.78;;;16.94;99.94
11440;BME280;5776;51.814;4.510;2023-05-21T09:53:54;101886.19;;;17.01;99.75
11440;BME280;5776;51.814;4.510;2023-05-21T09:56:26;101887.13;;;17.11;100.00
11440;BME280;5776;51.814;4.510;2023-05-21T09:58:55;101874.78;;;17.22;99.38
11440;BME280;5776;51.814;4.510;2023-05-21T10:01:25;101879.19;;;17.23;99.29
11440;BME280;5776;51.814;4.510;2023-05-21T10:03:56;101880.78;;;17.24;99.43
11440;BME280;5776;51.814;4.510;2023-05-21T10:06:27;101875.81;;;17.26;99.69
11440;BME280;5776;51.814;4.510;2023-05-21T10:08:55;101872.44;;;17.29;99.36
11440;BME280;5776;51.814;4.510;2023-05-21T10:11:24;101863.91;;;17.17;100.00
11440;BME280;5776;51.814;4.510;2023-05-21T10:13:59;101864.66;;;17.09;99.83
11440;BME280;5776;51.814;4.510;2023-05-21T10:16:25;101860.06;;;17.04;100.00
11440;BME280;5776;51.814;4.510;2023-05-21T10:18:52;101855.41;;;17.04;99.92
11440;BME280;5776;51.814;4.510;2023-05-21T10:21:20;101860.06;;;17.04;100.00
11440;BME280;5776;51.814;4.510;2023-05-21T10:23:47;101858.66;;;17.06;100.00
11440;BME280;5776;51.814;4.510;2023-05-21T10:26:14;101863.34;;;17.06;100.00
11440;BME280;5776;51.814;4.510;2023-05-21T10:28:41;101866.06;;;17.06;99.59
11440;BME280;5776;51.814;4.510;2023-05-21T10:31:07;101853.16;;;17.06;100.00
11440;BME280;5776;51.814;4.510;2023-05-21T10:33:34;101852.34;;;17.06;100.00
11440;BME280;5776;51.814;4.510;2023-05-21T10:36:00;101853.97;;;17.07;99.74
11440;BME280;5776;51.814;4.510;2023-05-21T10:38:26;101850.94;;;17.09;99.78
11440;BME280;5776;51.814;4.510;2023-05-21T10:40:54;101859.97;;;17.09;99.23
11440;BME280;5776;51.814;4.510;2023-05-21T10:43:55;101851.72;;;17.09;99.66
11440;BME280;5776;51.814;4.510;2023-05-21T11:00:09;101843.22;;;17.69;99.08
11440;BME280;5776;51.814;4.510;2023-05-21T11:02:37;101836.06;;;17.82;98.03
11440;BME280;5776;51.814;4.510;2023-05-21T11:05:03;101843.59;;;17.77;97.96
11440;BME280;5776;51.814;4.510;2023-05-21T11:07:49;101829.13;;;17.85;97.93
11440;BME280;5776;51.814;4.510;2023-05-21T11:10:35;101835.28;;;17.90;97.92
11440;BME280;5776;51.814;4.510;2023-05-21T11:13:12;101833.69;;;17.89;97.71
11440;BME280;5776;51.814;4.510;2023-05-21T11:21:09;101826.34;;;18.07;98.28
11440;BME280;5776;51.814;4.510;2023-05-21T11:26:24;101816.66;;;18.10;97.98
11440;BME280;5776;51.814;4.510;2023-05-21T11:31:29;101800.69;;;18.12;98.14
11440;BME280;5776;51.814;4.510;2023-05-21T11:34:22;101795.84;;;18.18;97.57
11440;BME280;5776;51.814;4.510;2023-05-21T11:39:55;101804.94;;;18.27;97.12
11440;BME280;5776;51.814;4.510;2023-05-21T11:44:55;101797.19;;;18.29;96.67
11440;BME280;5776;51.814;4.510;2023-05-21T11:47:25;101798.66;;;18.26;97.18
11440;BME280;5776;51.814;4.510;2023-05-21T11:49:52;101804.66;;;18.28;97.44
11440;BME280;5776;51.814;4.510;2023-05-21T11:52:19;101801.41;;;18.26;97.02
11440;BME280;5776;51.814;4.510;2023-05-21T11:54:50;101808.50;;;18.27;97.01
11440;BME280;5776;51.814;4.510;2023-05-21T11:57:19;101799.34;;;18.41;96.44
11440;BME280;5776;51.814;4.510;2023-05-21T11:59:46;101804.66;;;18.37;96.46
11440;BME280;5776;51.814;4.510;2023-05-21T12:02:20;101799.00;;;18.33;96.70
11440;BME280;5776;51.814;4.510;2023-05-21T12:04:49;101789.91;;;18.33;96.86
11440;BME280;5776;51.814;4.510;2023-05-21T12:07:17;101792.38;;;18.34;96.46
11440;BME280;5776;51.814;4.510;2023-05-21T12:09:48;101804.38;;;18.39;96.89
11440;BME280;5776;51.814;4.510;2023-05-21T12:12:16;101800.63;;;18.43;96.14
11440;BME280;5776;51.814;4.510;2023-05-21T12:14:46;101804.69;;;18.46;95.71
11440;BME280;5776;51.814;4.510;2023-05-21T12:17:18;101794.69;;;18.50;96.06
11440;BME280;5776;51.814;4.510;2023-05-21T12:19:45;101804.91;;;18.58;96.60
11440;BME280;5776;51.814;4.510;2023-05-21T12:22:12;101798.13;;;18.64;96.38
11440;BME280;5776;51.814;4.510;2023-05-21T12:24:38;101790.69;;;18.65;96.88
11440;BME280;5776;51.814;4.510;2023-05-21T12:27:05;101797.00;;;18.65;96.43
11440;BME280;5776;51.814;4.510;2023-05-21T12:29:36;101789.88;;;18.64;95.99
11440;BME280;5776;51.814;4.510;2023-05-21T12:32:03;101790.69;;;18.65;96.28
11440;BME280;5776;51.814;4.510;2023-05-21T12:34:45;101779.97;;;18.63;96.52
11440;BME280;5776;51.814;4.510;2023-05-21T12:37:14;101787.13;;;18.64;96.90
11440;BME280;5776;51.814;4.510;2023-05-21T12:39:46;101767.06;;;18.72;96.71
11440;BME280;5776;51.814;4.510;2023-05-21T12:42:12;101771.47;;;18.73;96.19
11440;BME280;5776;51.814;4.510;2023-05-21T12:44:42;101769.53;;;18.83;95.84
11440;BME280;5776;51.814;4.510;2023-05-21T12:47:09;101781.19;;;18.80;96.11
11440;BME280;5776;51.814;4.510;2023-05-21T12:49:40;101766.16;;;18.77;95.46
11440;BME280;5776;51.814;4.510;2023-05-21T12:52:09;101759.69;;;18.82;96.34
11440;BME280;5776;51.814;4.510;2023-05-21T12:54:36;101775.03;;;18.83;96.08
11440;BME280;5776;51.814;4.510;2023-05-21T12:59:48;101772.94;;;18.88;95.77
11440;BME280;5776;51.814;4.510;2023-05-21T13:02:38;101768.28;;;18.89;96.10
11440;BME280;5776;51.814;4.510;2023-05-21T13:05:06;101769.72;;;18.86;95.77
11440;BME280;5776;51.814;4.510;2023-05-21T13:07:41;101768.91;;;18.86;96.13
11440;BME280;5776;51.814;4.510;2023-05-21T13:10:09;101768.28;;;18.89;95.92
11440;BME280;5776;51.814;4.510;2023-05-21T13:12:36;101778.63;;;18.92;95.67
11440;BME280;5776;51.814;4.510;2023-05-21T13:15:03;101776.84;;;18.96;96.38
11440;BME280;5776;51.814;4.510;2023-05-21T13:17:30;101775.72;;;18.97;96.33
11440;BME280;5776;51.814;4.510;2023-05-21T13:20:15;101774.41;;;19.03;96.18
11440;BME280;5776;51.814;4.510;2023-05-21T13:22:46;101772.81;;;19.02;95.85
11440;BME280;5776;51.814;4.510;2023-05-21T13:25:15;101771.22;;;19.01;95.72
11440;BME280;5776;51.814;4.510;2023-05-21T13:27:41;101777.69;;;19.14;95.86
11440;BME280;5776;51.814;4.510;2023-05-21T13:30:08;101779.44;;;19.18;95.60
11440;BME280;5776;51.814;4.510;2023-05-21T13:32:35;101782.34;;;19.13;95.99
11440;BME280;5776;51.814;4.510;2023-05-21T13:35:01;101777.53;;;19.19;95.65